Huvudsida
METAR-TAF:

METAR-TAF

Flygplatser :

Koror, Babeldaob, Palau

latitud: 07-22N, longitud: 134-32E, höjd: 54 m

Aktuellt väderrapport

Denna rapport gjordes för 1 timme och 2 minuter sedan, klockan 17:50 UTC
Vind 6 kt från ost/nordost
Temperatur 27°C
Fuktighet 89%
Tryck 1009 hPa
Sikt: 24.1 km
Spridda moln på en höjd av 1600 ft
Brutna moln på en höjd av 30000 ft

METAR: PTRO 111750Z 07006KT 15SM SCT016 BKN300 27/25 A2979

Tid: 03:52 (18:52 UTC)

Väderprognos

Denna rapport gjordes för 1 timme och 32 minuter sedan, klockan 17:20 UTC
Prognos gäller från 11 kl. 18 UTC till 12 kl. 18 UTC
Vind 10 kt från ost/nordost
Sikt: 10 km
Spridda moln på en höjd av 1600 ft
Spridda moln på en höjd av 12000 ft

TAF: PTRO 111720Z 1118/1218 07010KT P6SM SCT016 SCT120

Aktuella väderrapporter och prognoser från 4000 flygplatser (METAR- och TAF-rapporter).

De tillgängliga stationerna syns som gula och röda prickar på kartan.

För musen över prickarna för att se namnen på stationerna.

Klicka sedan för att få väderrapporter och prognoser.

För att ändra kartan: Klicka på de gröna knapparna med ett svart kors på för att zooma in; den gröna knappen med ett streck på för att zooma ut; eller på de gröna pilarna för angränsande kartor.


METAR-TAF: